sensor_id;sensor_type;location;lat;lon;timestamp;pressure;altitude;pressure_sealevel;temperature;humidity
59825;BME280;45703;50.898;6.054;2023-03-13T00:00:58;99019.16;;;11.25;89.71
59825;BME280;45703;50.898;6.054;2023-03-13T00:03:24;99005.25;;;11.23;89.70
59825;BME280;45703;50.898;6.054;2023-03-13T00:05:54;99001.72;;;11.17;89.91
59825;BME280;45703;50.898;6.054;2023-03-13T00:08:19;99007.06;;;11.17;90.38
59825;BME280;45703;50.898;6.054;2023-03-13T00:10:45;99005.94;;;11.13;90.68
59825;BME280;45703;50.898;6.054;2023-03-13T00:13:10;99006.22;;;11.12;90.78
59825;BME280;45703;50.898;6.054;2023-03-13T00:15:36;99000.06;;;11.11;91.10
59825;BME280;45703;50.898;6.054;2023-03-13T00:18:01;98977.09;;;11.10;91.12
59825;BME280;45703;50.898;6.054;2023-03-13T00:20:26;98976.84;;;11.12;91.15
59825;BME280;45703;50.898;6.054;2023-03-13T00:22:52;98985.41;;;11.14;91.20
59825;BME280;45703;50.898;6.054;2023-03-13T00:25:17;98986.50;;;11.18;91.13
59825;BME280;45703;50.898;6.054;2023-03-13T00:27:43;98977.16;;;11.20;91.61
59825;BME280;45703;50.898;6.054;2023-03-13T00:30:08;98977.16;;;11.20;91.38
59825;BME280;45703;50.898;6.054;2023-03-13T00:32:42;98989.53;;;11.26;91.57
59825;BME280;45703;50.898;6.054;2023-03-13T00:35:08;98964.94;;;11.24;91.68
59825;BME280;45703;50.898;6.054;2023-03-13T00:37:33;98967.88;;;11.28;91.31
59825;BME280;45703;50.898;6.054;2023-03-13T00:39:59;98956.44;;;11.32;91.65
59825;BME280;45703;50.898;6.054;2023-03-13T00:42:24;98948.41;;;11.32;91.61
59825;BME280;45703;50.898;6.054;2023-03-13T00:44:49;98952.47;;;11.40;92.16
59825;BME280;45703;50.898;6.054;2023-03-13T00:47:15;98948.69;;;11.36;91.72
59825;BME280;45703;50.898;6.054;2023-03-13T00:49:40;98946.34;;;11.44;91.92
59825;BME280;45703;50.898;6.054;2023-03-13T00:52:06;98931.13;;;11.44;92.11
59825;BME280;45703;50.898;6.054;2023-03-13T00:54:31;98932.78;;;11.50;92.26
59825;BME280;45703;50.898;6.054;2023-03-13T00:56:56;98923.69;;;11.51;92.15
59825;BME280;45703;50.898;6.054;2023-03-13T00:59:22;98920.72;;;11.48;92.35
59825;BME280;45703;50.898;6.054;2023-03-13T01:01:47;98923.75;;;11.56;92.96
59825;BME280;45703;50.898;6.054;2023-03-13T01:04:13;98914.91;;;11.56;93.37
59825;BME280;45703;50.898;6.054;2023-03-13T01:06:39;98910.41;;;11.56;92.91
59825;BME280;45703;50.898;6.054;2023-03-13T01:09:08;98908.78;;;11.55;93.49
59825;BME280;45703;50.898;6.054;2023-03-13T01:11:36;98900.44;;;11.52;94.13
59825;BME280;45703;50.898;6.054;2023-03-13T01:14:05;98897.75;;;11.52;94.30
59825;BME280;45703;50.898;6.054;2023-03-13T01:16:31;98903.94;;;11.52;94.99
59825;BME280;45703;50.898;6.054;2023-03-13T01:19:00;98882.56;;;11.52;95.69
59825;BME280;45703;50.898;6.054;2023-03-13T01:21:26;98879.81;;;11.47;96.27
59825;BME280;45703;50.898;6.054;2023-03-13T01:23:53;98882.25;;;11.49;97.58
59825;BME280;45703;50.898;6.054;2023-03-13T01:26:19;98877.97;;;11.48;97.06
59825;BME280;45703;50.898;6.054;2023-03-13T01:28:45;98885.16;;;11.47;97.73
59825;BME280;45703;50.898;6.054;2023-03-13T01:31:21;98868.66;;;11.50;99.01
59825;BME280;45703;50.898;6.054;2023-03-13T01:33:50;98862.19;;;11.46;99.30
59825;BME280;45703;50.898;6.054;2023-03-13T01:36:18;98861.63;;;11.44;99.34
59825;BME280;45703;50.898;6.054;2023-03-13T01:38:47;98854.97;;;11.42;100.00
59825;BME280;45703;50.898;6.054;2023-03-13T01:41:12;98848.53;;;11.38;100.00
59825;BME280;45703;50.898;6.054;2023-03-13T01:43:37;98842.09;;;11.34;100.00
59825;BME280;45703;50.898;6.054;2023-03-13T01:51:23;98835.38;;;11.27;100.00
59825;BME280;45703;50.898;6.054;2023-03-13T01:53:51;98811.88;;;11.29;100.00
59825;BME280;45703;50.898;6.054;2023-03-13T01:56:28;98810.00;;;11.24;100.00
59825;BME280;45703;50.898;6.054;2023-03-13T01:58:56;98803.84;;;11.24;100.00
59825;BME280;45703;50.898;6.054;2023-03-13T02:01:23;98812.38;;;11.21;100.00
59825;BME280;45703;50.898;6.054;2023-03-13T02:03:49;98824.41;;;11.23;100.00
59825;BME280;45703;50.898;6.054;2023-03-13T02:06:16;98811.31;;;11.27;100.00
59825;BME280;45703;50.898;6.054;2023-03-13T02:08:53;98818.25;;;11.23;100.00
59825;BME280;45703;50.898;6.054;2023-03-13T02:14:06;98807.06;;;11.26;100.00
59825;BME280;45703;50.898;6.054;2023-03-13T02:16:33;98823.34;;;11.24;100.00
59825;BME280;45703;50.898;6.054;2023-03-13T02:19:01;98811.88;;;11.29;100.00
59825;BME280;45703;50.898;6.054;2023-03-13T02:21:42;98808.94;;;11.30;100.00
59825;BME280;45703;50.898;6.054;2023-03-13T02:24:34;98790.78;;;11.32;100.00
59825;BME280;45703;50.898;6.054;2023-03-13T02:27:02;98815.38;;;11.34;100.00
59825;BME280;45703;50.898;6.054;2023-03-13T02:29:28;98805.50;;;11.35;100.00
59825;BME280;45703;50.898;6.054;2023-03-13T02:31:54;98776.63;;;11.32;100.00
59825;BME280;45703;50.898;6.054;2023-03-13T02:34:21;98781.97;;;11.37;100.00
59825;BME280;45703;50.898;6.054;2023-03-13T02:36:49;98779.84;;;11.39;100.00
59825;BME280;45703;50.898;6.054;2023-03-13T02:39:16;98755.00;;;11.33;100.00
59825;BME280;45703;50.898;6.054;2023-03-13T02:41:43;98759.00;;;11.36;100.00
59825;BME280;45703;50.898;6.054;2023-03-13T02:44:09;98746.19;;;11.38;100.00
59825;BME280;45703;50.898;6.054;2023-03-13T02:46:49;98738.72;;;11.40;100.00
59825;BME280;45703;50.898;6.054;2023-03-13T02:49:28;98731.22;;;11.42;100.00
59825;BME280;45703;50.898;6.054;2023-03-13T02:51:56;98734.97;;;11.41;100.00
59825;BME280;45703;50.898;6.054;2023-03-13T02:54:26;98704.78;;;11.40;100.00
59825;BME280;45703;50.898;6.054;2023-03-13T02:56:56;98729.91;;;11.39;100.00
59825;BME280;45703;50.898;6.054;2023-03-13T02:59:23;98720.03;;;11.44;100.00
59825;BME280;45703;50.898;6.054;2023-03-13T03:01:49;98746.22;;;11.47;100.00
59825;BME280;45703;50.898;6.054;2023-03-13T03:04:23;98730.19;;;11.47;100.00
59825;BME280;45703;50.898;6.054;2023-03-13T03:06:50;98741.44;;;11.54;100.00
59825;BME280;45703;50.898;6.054;2023-03-13T03:09:16;98729.94;;;11.54;100.00
59825;BME280;45703;50.898;6.054;2023-03-13T03:11:42;98726.53;;;11.58;100.00
59825;BME280;45703;50.898;6.054;2023-03-13T03:14:08;98731.88;;;11.58;100.00
59825;BME280;45703;50.898;6.054;2023-03-13T03:16:34;98717.97;;;11.56;100.00
59825;BME280;45703;50.898;6.054;2023-03-13T03:19:00;98724.91;;;11.57;100.00
59825;BME280;45703;50.898;6.054;2023-03-13T03:21:25;98718.22;;;11.60;100.00
59825;BME280;45703;50.898;6.054;2023-03-13T03:23:51;98713.41;;;11.57;100.00
59825;BME280;45703;50.898;6.054;2023-03-13T03:26:16;98712.88;;;11.60;100.00
59825;BME280;45703;50.898;6.054;2023-03-13T03:28:42;98715.56;;;11.60;100.00
59825;BME280;45703;50.898;6.054;2023-03-13T03:31:09;98706.22;;;11.62;100.00
59825;BME280;45703;50.898;6.054;2023-03-13T03:33:36;98691.25;;;11.61;100.00
59825;BME280;45703;50.898;6.054;2023-03-13T03:36:03;98682.69;;;11.59;100.00
59825;BME280;45703;50.898;6.054;2023-03-13T03:38:29;98676.28;;;11.60;100.00
59825;BME280;45703;50.898;6.054;2023-03-13T03:40:54;98686.16;;;11.65;100.00
59825;BME280;45703;50.898;6.054;2023-03-13T03:43:20;98688.28;;;11.63;100.00
59825;BME280;45703;50.898;6.054;2023-03-13T03:45:45;98698.19;;;11.67;100.00
59825;BME280;45703;50.898;6.054;2023-03-13T03:48:11;98703.03;;;11.70;100.00
59825;BME280;45703;50.898;6.054;2023-03-13T03:50:36;98686.44;;;11.73;100.00
59825;BME280;45703;50.898;6.054;2023-03-13T03:53:02;98692.88;;;11.77;100.00
59825;BME280;45703;50.898;6.054;2023-03-13T03:55:27;98687.53;;;11.77;100.00
59825;BME280;45703;50.898;6.054;2023-03-13T03:57:52;98689.13;;;11.83;100.00
59825;BME280;45703;50.898;6.054;2023-03-13T04:00:18;98697.69;;;11.85;100.00
59825;BME280;45703;50.898;6.054;2023-03-13T04:02:44;98691.25;;;11.86;100.00
59825;BME280;45703;50.898;6.054;2023-03-13T04:05:09;98706.25;;;11.92;100.00
59825;BME280;45703;50.898;6.054;2023-03-13T04:07:35;98716.41;;;11.95;100.00
59825;BME280;45703;50.898;6.054;2023-03-13T04:10:01;98700.34;;;11.95;100.00
59825;BME280;45703;50.898;6.054;2023-03-13T04:12:27;98699.28;;;11.96;100.00
59825;BME280;45703;50.898;6.054;2023-03-13T04:14:52;98704.13;;;11.99;100.00
59825;BME280;45703;50.898;6.054;2023-03-13T04:17:18;98697.69;;;11.95;100.00
59825;BME280;45703;50.898;6.054;2023-03-13T04:19:43;98696.63;;;12.01;100.00
59825;BME280;45703;50.898;6.054;2023-03-13T04:22:08;98701.69;;;12.03;100.00
59825;BME280;45703;50.898;6.054;2023-03-13T04:24:34;98704.91;;;12.10;100.00
59825;BME280;45703;50.898;6.054;2023-03-13T04:26:59;98679.50;;;12.12;100.00
59825;BME280;45703;50.898;6.054;2023-03-13T04:29:26;98663.72;;;12.16;100.00
59825;BME280;45703;50.898;6.054;2023-03-13T04:31:52;98679.50;;;12.17;100.00
59825;BME280;45703;50.898;6.054;2023-03-13T04:34:17;98671.47;;;12.17;100.00
59825;BME280;45703;50.898;6.054;2023-03-13T04:36:42;98682.97;;;12.28;100.00
59825;BME280;45703;50.898;6.054;2023-03-13T04:39:08;98660.22;;;12.25;100.00
59825;BME280;45703;50.898;6.054;2023-03-13T04:41:33;98662.91;;;12.30;100.00
59825;BME280;45703;50.898;6.054;2023-03-13T04:43:58;98667.19;;;12.31;100.00
59825;BME280;45703;50.898;6.054;2023-03-13T04:46:24;98663.69;;;12.36;100.00
59825;BME280;45703;50.898;6.054;2023-03-13T04:48:49;98644.44;;;12.34;100.00
59825;BME280;45703;50.898;6.054;2023-03-13T04:51:14;98661.28;;;12.34;100.00
59825;BME280;45703;50.898;6.054;2023-03-13T04:53:40;98639.34;;;12.32;100.00
59825;BME280;45703;50.898;6.054;2023-03-13T04:56:05;98634.00;;;12.27;100.00
59825;BME280;45703;50.898;6.054;2023-03-13T04:58:31;98619.00;;;12.31;100.00
59825;BME280;45703;50.898;6.054;2023-03-13T05:00:56;98619.53;;;12.33;100.00
59825;BME280;45703;50.898;6.054;2023-03-13T05:03:22;98617.41;;;12.35;100.00
59825;BME280;45703;50.898;6.054;2023-03-13T05:05:48;98607.53;;;12.31;100.00
59825;BME280;45703;50.898;6.054;2023-03-13T05:08:13;98625.44;;;12.35;100.00
59825;BME280;45703;50.898;6.054;2023-03-13T05:10:41;98611.25;;;12.40;100.00
59825;BME280;45703;50.898;6.054;2023-03-13T05:13:06;98618.72;;;12.43;100.00
59825;BME280;45703;50.898;6.054;2023-03-13T05:15:32;98610.44;;;12.39;100.00
59825;BME280;45703;50.898;6.054;2023-03-13T05:17:57;98624.88;;;12.43;100.00
59825;BME280;45703;50.898;6.054;2023-03-13T05:20:22;98590.63;;;12.50;100.00
59825;BME280;45703;50.898;6.054;2023-03-13T05:22:48;98593.81;;;12.52;100.00
59825;BME280;45703;50.898;6.054;2023-03-13T05:25:14;98592.19;;;12.56;100.00
59825;BME280;45703;50.898;6.054;2023-03-13T05:27:39;98588.16;;;12.59;100.00
59825;BME280;45703;50.898;6.054;2023-03-13T05:30:05;98597.25;;;12.58;100.00
59825;BME280;45703;50.898;6.054;2023-03-13T05:32:30;98616.78;;;12.63;100.00
59825;BME280;45703;50.898;6.054;2023-03-13T05:34:56;98614.63;;;12.65;100.00
59825;BME280;45703;50.898;6.054;2023-03-13T05:37:21;98620.22;;;12.69;100.00
59825;BME280;45703;50.898;6.054;2023-03-13T05:39:47;98616.22;;;12.71;100.00
59825;BME280;45703;50.898;6.054;2023-03-13T05:42:12;98628.56;;;12.67;100.00
59825;BME280;45703;50.898;6.054;2023-03-13T05:44:37;98638.72;;;12.70;100.00
59825;BME280;45703;50.898;6.054;2023-03-13T05:47:03;98636.59;;;12.67;100.00
59825;BME280;45703;50.898;6.054;2023-03-13T05:49:28;98632.00;;;12.73;100.00
59825;BME280;45703;50.898;6.054;2023-03-13T05:51:53;98629.84;;;12.75;100.00
59825;BME280;45703;50.898;6.054;2023-03-13T05:54:19;98627.16;;;12.75;100.00
59825;BME280;45703;50.898;6.054;2023-03-13T05:56:44;98647.00;;;12.79;100.00
59825;BME280;45703;50.898;6.054;2023-03-13T05:59:12;98632.78;;;12.78;100.00
59825;BME280;45703;50.898;6.054;2023-03-13T06:01:38;98636.53;;;12.82;100.00
59825;BME280;45703;50.898;6.054;2023-03-13T06:04:03;98640.28;;;12.81;100.00
59825;BME280;45703;50.898;6.054;2023-03-13T06:06:29;98639.19;;;12.82;100.00
59825;BME280;45703;50.898;6.054;2023-03-13T06:08:54;98641.88;;;12.82;100.00
59825;BME280;45703;50.898;6.054;2023-03-13T06:11:19;98642.16;;;12.86;100.00
59825;BME280;45703;50.898;6.054;2023-03-13T06:13:45;98635.19;;;12.85;100.00
59825;BME280;45703;50.898;6.054;2023-03-13T06:16:10;98628.47;;;12.87;100.00
59825;BME280;45703;50.898;6.054;2023-03-13T06:18:36;98640.00;;;12.88;100.00
59825;BME280;45703;50.898;6.054;2023-03-13T06:21:01;98638.38;;;12.87;100.00
59825;BME280;45703;50.898;6.054;2023-03-13T06:23:27;98646.16;;;12.93;100.00
59825;BME280;45703;50.898;6.054;2023-03-13T06:25:53;98647.47;;;12.96;100.00
59825;BME280;45703;50.898;6.054;2023-03-13T06:28:18;98639.41;;;13.00;100.00
59825;BME280;45703;50.898;6.054;2023-03-13T06:30:44;98638.59;;;13.00;99.99
59825;BME280;45703;50.898;6.054;2023-03-13T06:33:09;98641.84;;;13.02;100.00
59825;BME280;45703;50.898;6.054;2023-03-13T06:35:39;98638.88;;;13.03;99.70
59825;BME280;45703;50.898;6.054;2023-03-13T06:38:04;98639.97;;;12.98;98.96
59825;BME280;45703;50.898;6.054;2023-03-13T06:40:30;98636.47;;;13.07;98.78
59825;BME280;45703;50.898;6.054;2023-03-13T06:42:55;98656.25;;;13.11;98.21
59825;BME280;45703;50.898;6.054;2023-03-13T06:45:20;98658.09;;;13.15;97.12
59825;BME280;45703;50.898;6.054;2023-03-13T06:47:46;98653.78;;;13.19;97.38
59825;BME280;45703;50.898;6.054;2023-03-13T06:50:11;98654.59;;;13.20;96.54
59825;BME280;45703;50.898;6.054;2023-03-13T06:52:37;98640.13;;;13.21;97.12
59825;BME280;45703;50.898;6.054;2023-03-13T06:55:03;98620.88;;;13.14;96.32
59825;BME280;45703;50.898;6.054;2023-03-13T06:57:29;98633.66;;;13.27;95.85
59825;BME280;45703;50.898;6.054;2023-03-13T06:59:54;98633.09;;;13.30;94.81
59825;BME280;45703;50.898;6.054;2023-03-13T07:02:20;98629.34;;;13.31;94.86
59825;BME280;45703;50.898;6.054;2023-03-13T07:04:45;98621.81;;;13.33;94.27
59825;BME280;45703;50.898;6.054;2023-03-13T07:07:11;98623.38;;;13.39;94.03
59825;BME280;45703;50.898;6.054;2023-03-13T07:09:36;98620.16;;;13.42;94.17
59825;BME280;45703;50.898;6.054;2023-03-13T07:12:01;98608.66;;;13.41;93.59
59825;BME280;45703;50.898;6.054;2023-03-13T07:14:27;98588.00;;;13.42;94.06
59825;BME280;45703;50.898;6.054;2023-03-13T07:16:53;98600.78;;;13.50;92.86
59825;BME280;45703;50.898;6.054;2023-03-13T07:19:18;98593.84;;;13.49;93.54
59825;BME280;45703;50.898;6.054;2023-03-13T07:21:44;98597.03;;;13.51;93.15
59825;BME280;45703;50.898;6.054;2023-03-13T07:24:11;98599.94;;;13.59;91.89
59825;BME280;45703;50.898;6.054;2023-03-13T07:26:36;98606.09;;;13.60;91.87
59825;BME280;45703;50.898;6.054;2023-03-13T07:29:02;98586.28;;;13.56;91.37
59825;BME280;45703;50.898;6.054;2023-03-13T07:31:28;98597.75;;;13.61;91.80
59825;BME280;45703;50.898;6.054;2023-03-13T07:33:57;98595.91;;;13.62;91.11
59825;BME280;45703;50.898;6.054;2023-03-13T07:36:23;98598.28;;;13.63;91.32
59825;BME280;45703;50.898;6.054;2023-03-13T07:38:49;98599.09;;;13.64;91.00
59825;BME280;45703;50.898;6.054;2023-03-13T07:41:15;98589.69;;;13.66;90.17
59825;BME280;45703;50.898;6.054;2023-03-13T07:43:40;98602.31;;;13.66;89.97
59825;BME280;45703;50.898;6.054;2023-03-13T07:46:08;98594.78;;;13.68;90.67
59825;BME280;45703;50.898;6.054;2023-03-13T07:48:37;98578.69;;;13.68;90.59
59825;BME280;45703;50.898;6.054;2023-03-13T07:51:05;98598.81;;;13.65;90.24
59825;BME280;45703;50.898;6.054;2023-03-13T07:53:31;98594.47;;;13.69;90.54
59825;BME280;45703;50.898;6.054;2023-03-13T07:56:02;98589.94;;;13.70;90.20
59825;BME280;45703;50.898;6.054;2023-03-13T07:58:33;98596.38;;;13.69;91.47
59825;BME280;45703;50.898;6.054;2023-03-13T08:00:59;98597.41;;;13.73;91.21
59825;BME280;45703;50.898;6.054;2023-03-13T08:03:25;98605.47;;;13.73;90.95
59825;BME280;45703;50.898;6.054;2023-03-13T08:05:59;98594.44;;;13.74;90.77
59825;BME280;45703;50.898;6.054;2023-03-13T08:08:24;98597.94;;;13.75;90.98
59825;BME280;45703;50.898;6.054;2023-03-13T08:10:50;98592.56;;;13.75;91.42
59825;BME280;45703;50.898;6.054;2023-03-13T08:13:16;98581.59;;;13.71;91.72
59825;BME280;45703;50.898;6.054;2023-03-13T08:15:41;98593.13;;;13.72;92.06
59825;BME280;45703;50.898;6.054;2023-03-13T08:18:06;98590.72;;;13.70;92.79
59825;BME280;45703;50.898;6.054;2023-03-13T08:20:32;98572.81;;;13.66;93.18
59825;BME280;45703;50.898;6.054;2023-03-13T08:22:57;98585.69;;;13.64;93.51
59825;BME280;45703;50.898;6.054;2023-03-13T08:25:22;98570.63;;;13.68;93.81
59825;BME280;45703;50.898;6.054;2023-03-13T08:27:48;98561.78;;;13.67;93.66
59825;BME280;45703;50.898;6.054;2023-03-13T08:30:13;98570.06;;;13.71;94.07
59825;BME280;45703;50.898;6.054;2023-03-13T08:32:39;98558.53;;;13.70;94.15
59825;BME280;45703;50.898;6.054;2023-03-13T08:35:05;98563.69;;;13.67;94.24
59825;BME280;45703;50.898;6.054;2023-03-13T08:37:30;98555.34;;;13.68;94.15
59825;BME280;45703;50.898;6.054;2023-03-13T08:39:55;98566.31;;;13.72;94.20
59825;BME280;45703;50.898;6.054;2023-03-13T08:42:22;98562.31;;;13.69;94.50
59825;BME280;45703;50.898;6.054;2023-03-13T08:44:47;98563.06;;;13.75;94.32
59825;BME280;45703;50.898;6.054;2023-03-13T08:47:13;98557.66;;;13.80;94.06
59825;BME280;45703;50.898;6.054;2023-03-13T08:49:39;98549.56;;;13.85;94.13
59825;BME280;45703;50.898;6.054;2023-03-13T08:52:05;98565.34;;;13.91;94.12
59825;BME280;45703;50.898;6.054;2023-03-13T08:54:32;98564.19;;;13.97;93.74
59825;BME280;45703;50.898;6.054;2023-03-13T08:56:57;98530.59;;;14.05;93.19
59825;BME280;45703;50.898;6.054;2023-03-13T08:59:24;98548.72;;;14.18;92.69
59825;BME280;45703;50.898;6.054;2023-03-13T09:01:49;98559.88;;;14.30;93.14
59825;BME280;45703;50.898;6.054;2023-03-13T09:04:15;98547.91;;;14.41;92.85
59825;BME280;45703;50.898;6.054;2023-03-13T09:06:40;98547.53;;;14.52;92.31
59825;BME280;45703;50.898;6.054;2023-03-13T09:09:06;98558.44;;;14.60;91.66
59825;BME280;45703;50.898;6.054;2023-03-13T09:11:33;98546.88;;;14.60;91.76
59825;BME280;45703;50.898;6.054;2023-03-13T09:13:59;98551.16;;;14.61;91.86
59825;BME280;45703;50.898;6.054;2023-03-13T09:16:28;98546.16;;;14.54;91.72
59825;BME280;45703;50.898;6.054;2023-03-13T09:18:54;98545.63;;;14.52;92.13
59825;BME280;45703;50.898;6.054;2023-03-13T09:21:24;98533.00;;;14.53;92.34
59825;BME280;45703;50.898;6.054;2023-03-13T09:23:50;98535.34;;;14.59;91.59
59825;BME280;45703;50.898;6.054;2023-03-13T09:26:18;98529.50;;;14.52;91.73
59825;BME280;45703;50.898;6.054;2023-03-13T09:28:43;98551.47;;;14.59;91.86
59825;BME280;45703;50.898;6.054;2023-03-13T09:31:15;98537.47;;;14.62;91.56
59825;BME280;45703;50.898;6.054;2023-03-13T09:33:43;98538.47;;;14.66;91.13
59825;BME280;45703;50.898;6.054;2023-03-13T09:36:09;98548.91;;;14.68;91.21
59825;BME280;45703;50.898;6.054;2023-03-13T09:38:36;98543.78;;;14.71;90.85
59825;BME280;45703;50.898;6.054;2023-03-13T09:49:04;98526.59;;;14.91;90.84
59825;BME280;45703;50.898;6.054;2023-03-13T09:51:39;98522.16;;;15.00;90.67
59825;BME280;45703;50.898;6.054;2023-03-13T09:54:23;98510.25;;;15.06;90.64
59825;BME280;45703;50.898;6.054;2023-03-13T09:56:58;98515.56;;;15.11;90.22
59825;BME280;45703;50.898;6.054;2023-03-13T10:01:58;98502.75;;;15.21;88.88
59825;BME280;45703;50.898;6.054;2023-03-13T10:04:41;98521.44;;;15.31;89.21
59825;BME280;45703;50.898;6.054;2023-03-13T10:07:10;98509.00;;;15.35;87.97
59825;BME280;45703;50.898;6.054;2023-03-13T10:09:36;98511.13;;;15.38;87.58
59825;BME280;45703;50.898;6.054;2023-03-13T10:14:48;98487.91;;;15.42;87.61
59825;BME280;45703;50.898;6.054;2023-03-13T10:19:56;98490.25;;;15.49;86.85
59825;BME280;45703;50.898;6.054;2023-03-13T10:22:25;98483.19;;;15.53;86.70
59825;BME280;45703;50.898;6.054;2023-03-13T10:27:48;98460.19;;;15.60;85.78
59825;BME280;45703;50.898;6.054;2023-03-13T10:30:34;98492.06;;;15.67;86.81
59825;BME280;45703;50.898;6.054;2023-03-13T10:33:26;98485.69;;;15.63;85.93
59825;BME280;45703;50.898;6.054;2023-03-13T10:36:04;98498.34;;;15.62;84.98
59825;BME280;45703;50.898;6.054;2023-03-13T10:38:34;98495.66;;;15.62;85.58
59825;BME280;45703;50.898;6.054;2023-03-13T10:43:54;98486.09;;;15.70;85.85
59825;BME280;45703;50.898;6.054;2023-03-13T10:46:39;98462.28;;;15.63;85.56
59825;BME280;45703;50.898;6.054;2023-03-13T10:49:16;98469.56;;;15.76;85.33
59825;BME280;45703;50.898;6.054;2023-03-13T10:51:50;98467.66;;;15.77;85.26
59825;BME280;45703;50.898;6.054;2023-03-13T10:54:24;98455.03;;;15.77;85.34
59825;BME280;45703;50.898;6.054;2023-03-13T10:56:51;98454.63;;;15.70;84.52
59825;BME280;45703;50.898;6.054;2023-03-13T10:59:25;98451.44;;;15.68;83.95
59825;BME280;45703;50.898;6.054;2023-03-13T11:01:52;98451.72;;;15.67;83.40
59825;BME280;45703;50.898;6.054;2023-03-13T11:04:30;98447.16;;;15.67;84.04
59825;BME280;45703;50.898;6.054;2023-03-13T11:07:29;98439.88;;;15.68;84.40
59825;BME280;45703;50.898;6.054;2023-03-13T11:10:01;98437.16;;;15.68;85.50
59825;BME280;45703;50.898;6.054;2023-03-13T11:12:32;98427.50;;;15.67;86.73
59825;BME280;45703;50.898;6.054;2023-03-13T11:14:59;98440.47;;;15.65;87.47
59825;BME280;45703;50.898;6.054;2023-03-13T11:17:39;98437.28;;;15.63;87.20
59825;BME280;45703;50.898;6.054;2023-03-13T11:25:42;98422.09;;;15.53;86.35
59825;BME280;45703;50.898;6.054;2023-03-13T11:28:37;98414.53;;;15.55;85.72
59825;BME280;45703;50.898;6.054;2023-03-13T11:36:35;98402.22;;;15.94;85.07
59825;BME280;45703;50.898;6.054;2023-03-13T11:42:23;98400.53;;;15.98;83.94
59825;BME280;45703;50.898;6.054;2023-03-13T11:50:18;98396.03;;;16.21;83.53
59825;BME280;45703;50.898;6.054;2023-03-13T11:56:00;98366.66;;;16.33;82.34
59825;BME280;45703;50.898;6.054;2023-03-13T12:01:26;98366.84;;;16.50;80.74
59825;BME280;45703;50.898;6.054;2023-03-13T12:06:28;98344.31;;;16.32;80.53
59825;BME280;45703;50.898;6.054;2023-03-13T12:09:09;98340.63;;;16.28;80.44
59825;BME280;45703;50.898;6.054;2023-03-13T12:14:30;98343.28;;;16.33;78.85
59825;BME280;45703;50.898;6.054;2023-03-13T12:20:35;98335.38;;;16.37;79.62
59825;BME280;45703;50.898;6.054;2023-03-13T12:25:31;98334.59;;;16.36;78.93
59825;BME280;45703;50.898;6.054;2023-03-13T12:28:32;98312.97;;;16.50;79.48
59825;BME280;45703;50.898;6.054;2023-03-13T12:31:10;98316.16;;;16.52;79.84
59825;BME280;45703;50.898;6.054;2023-03-13T12:33:51;98303.97;;;16.54;79.07
59825;BME280;45703;50.898;6.054;2023-03-13T12:36:36;98314.56;;;16.51;78.86
59825;BME280;45703;50.898;6.054;2023-03-13T12:39:17;98307.41;;;16.46;78.66
59825;BME280;45703;50.898;6.054;2023-03-13T12:44:32;98303.66;;;16.34;78.13
59825;BME280;45703;50.898;6.054;2023-03-13T12:47:07;98297.06;;;16.40;78.60
59825;BME280;45703;50.898;6.054;2023-03-13T12:49:44;98293.75;;;16.43;78.06
59825;BME280;45703;50.898;6.054;2023-03-13T12:57:56;98265.47;;;16.54;77.33
59825;BME280;45703;50.898;6.054;2023-03-13T13:00:25;98270.38;;;16.52;76.71
59825;BME280;45703;50.898;6.054;2023-03-13T13:06:12;98263.22;;;16.47;77.20
59825;BME280;45703;50.898;6.054;2023-03-13T13:08:45;98270.31;;;16.43;76.91
59825;BME280;45703;50.898;6.054;2023-03-13T13:24:56;98240.84;;;16.25;76.94
59825;BME280;45703;50.898;6.054;2023-03-13T13:29:58;98235.69;;;16.15;77.55
59825;BME280;45703;50.898;6.054;2023-03-13T13:32:38;98226.53;;;16.16;78.57
59825;BME280;45703;50.898;6.054;2023-03-13T13:37:37;98225.22;;;16.13;78.87
59825;BME280;45703;50.898;6.054;2023-03-13T13:40:22;98256.44;;;16.14;78.60
59825;BME280;45703;50.898;6.054;2023-03-13T13:42:58;98206.03;;;16.06;78.70
59825;BME280;45703;50.898;6.054;2023-03-13T13:45:26;98219.75;;;16.05;78.79
59825;BME280;45703;50.898;6.054;2023-03-13T13:53:48;98202.88;;;15.91;80.16
59825;BME280;45703;50.898;6.054;2023-03-13T14:01:30;98181.31;;;16.04;79.03
59825;BME280;45703;50.898;6.054;2023-03-13T14:04:10;98192.56;;;16.06;79.55
59825;BME280;45703;50.898;6.054;2023-03-13T14:06:38;98183.78;;;16.01;79.16
59825;BME280;45703;50.898;6.054;2023-03-13T14:09:32;98178.28;;;16.06;79.07
59825;BME280;45703;50.898;6.054;2023-03-13T14:11:58;98184.78;;;16.05;78.40
59825;BME280;45703;50.898;6.054;2023-03-13T14:14:24;98175.00;;;16.09;78.72
59825;BME280;45703;50.898;6.054;2023-03-13T14:16:51;98173.09;;;16.09;78.85
59825;BME280;45703;50.898;6.054;2023-03-13T14:19:28;98179.28;;;16.10;78.48
59825;BME280;45703;50.898;6.054;2023-03-13T14:22:10;98169.63;;;16.09;79.16
59825;BME280;45703;50.898;6.054;2023-03-13T14:24:36;98169.44;;;16.05;79.03
59825;BME280;45703;50.898;6.054;2023-03-13T14:27:14;98192.34;;;16.03;79.29
59825;BME280;45703;50.898;6.054;2023-03-13T14:29:39;98163.19;;;15.96;78.03
59825;BME280;45703;50.898;6.054;2023-03-13T14:32:05;98151.47;;;15.93;78.39
59825;BME280;45703;50.898;6.054;2023-03-13T14:34:31;98149.56;;;15.93;77.58
59825;BME280;45703;50.898;6.054;2023-03-13T14:36:58;98173.16;;;15.96;78.11
59825;BME280;45703;50.898;6.054;2023-03-13T14:39:37;98154.63;;;15.94;77.37
59825;BME280;45703;50.898;6.054;2023-03-13T14:42:12;98162.41;;;15.96;77.39
59825;BME280;45703;50.898;6.054;2023-03-13T14:44:38;98142.91;;;15.91;77.54
59825;BME280;45703;50.898;6.054;2023-03-13T14:47:07;98139.09;;;15.92;77.88
59825;BME280;45703;50.898;6.054;2023-03-13T14:49:34;98131.03;;;15.92;77.46
59825;BME280;45703;50.898;6.054;2023-03-13T14:54:33;98124.84;;;15.91;77.54